createdAt,value
2023-01-19T00:00:34.512Z,10.47
2023-01-19T00:05:36.792Z,14.17
2023-01-19T00:10:40.306Z,9.33
2023-01-19T00:15:42.485Z,10.40
2023-01-19T00:20:45.441Z,10.57
2023-01-19T00:25:48.736Z,10.80
2023-01-19T00:30:50.847Z,15.77
2023-01-19T00:35:53.804Z,8.70
2023-01-19T00:40:57.237Z,8.23
2023-01-19T00:45:59.212Z,10.10
2023-01-19T00:51:01.433Z,12.17
2023-01-19T00:56:05.568Z,8.57
2023-01-19T01:01:07.652Z,9.43
2023-01-19T01:06:09.866Z,8.60
2023-01-19T01:11:13.370Z,9.07
2023-01-19T01:16:16.459Z,10.00
2023-01-19T01:21:18.571Z,8.93
2023-01-19T01:26:22.207Z,8.27
2023-01-19T01:31:24.608Z,8.57
2023-01-19T01:36:26.742Z,8.47
2023-01-19T01:41:30.506Z,7.47
2023-01-19T01:46:32.789Z,8.13
2023-01-19T01:51:40.160Z,11.07
2023-01-19T01:56:45.642Z,6.10
2023-01-19T02:01:47.856Z,9.20
2023-01-19T02:06:50.614Z,9.03
2023-01-19T02:11:55.108Z,9.73
2023-01-19T02:16:57.523Z,8.40
2023-01-19T02:22:05.701Z,9.10
2023-01-19T02:27:10.125Z,7.37
2023-01-19T02:32:12.098Z,11.50
2023-01-19T02:37:17.446Z,9.83
2023-01-19T02:42:25.897Z,7.97
2023-01-19T02:47:37.727Z,15.23
2023-01-19T02:52:39.895Z,14.87
2023-01-19T02:57:59.239Z,10.83
2023-01-19T03:03:17.208Z,13.70
2023-01-19T03:08:30.958Z,11.83
2023-01-19T03:13:44.742Z,12.13
2023-01-19T03:18:52.390Z,13.27
2023-01-19T03:23:58.780Z,10.07
2023-01-19T03:29:03.666Z,15.20
2023-01-19T03:34:08.400Z,13.50
2023-01-19T03:39:13.230Z,10.27
2023-01-19T03:44:17.433Z,19.10
2023-01-19T03:49:19.806Z,13.17
2023-01-19T03:54:21.939Z,13.73
2023-01-19T03:59:25.327Z,12.37
2023-01-19T04:04:27.468Z,10.47
2023-01-19T04:09:29.686Z,11.33
2023-01-19T04:14:33.360Z,20.87
2023-01-19T04:19:35.608Z,14.83
2023-01-19T04:24:37.697Z,18.23
2023-01-19T04:29:41.162Z,22.90
2023-01-19T04:34:43.376Z,12.43
2023-01-19T04:39:45.909Z,13.70
2023-01-19T04:44:49.464Z,12.77
2023-01-19T04:49:51.632Z,13.37
2023-01-19T04:54:53.516Z,16.13
2023-01-19T04:59:57.358Z,13.20
2023-01-19T05:04:59.580Z,15.10
2023-01-19T05:10:01.591Z,24.00
2023-01-19T05:15:06.013Z,15.10
2023-01-19T05:20:10.539Z,14.00
2023-01-19T05:25:12.605Z,15.43
2023-01-19T05:30:16.924Z,15.23
2023-01-19T05:35:27.803Z,18.47
2023-01-19T05:40:34.209Z,20.03
2023-01-19T05:45:37.687Z,15.13
2023-01-19T05:50:39.822Z,13.10
2023-01-19T05:55:42.144Z,16.93
2023-01-19T06:00:45.805Z,13.87
2023-01-19T06:05:47.886Z,14.80
2023-01-19T06:10:50.164Z,15.87
2023-01-19T06:15:58.126Z,17.00
2023-01-19T06:21:03.761Z,16.57
2023-01-19T06:26:06.088Z,15.40
2023-01-19T06:31:09.728Z,16.37
2023-01-19T06:36:11.632Z,11.80
2023-01-19T06:41:13.647Z,15.37
2023-01-19T06:46:17.323Z,20.70
2023-01-19T06:51:19.477Z,14.50
2023-01-19T06:56:21.655Z,14.00
2023-01-19T07:01:25.112Z,12.00
2023-01-19T07:06:27.392Z,13.70
2023-01-19T07:11:33.054Z,16.43
2023-01-19T07:16:36.498Z,11.57
2023-01-19T07:21:38.419Z,9.83
2023-01-19T07:26:40.151Z,8.17
2023-01-19T07:31:43.345Z,9.30
2023-01-19T07:36:45.664Z,11.17
2023-01-19T07:41:48.458Z,10.13
2023-01-19T07:46:51.554Z,10.30
2023-01-19T07:51:53.283Z,8.83
2023-01-19T07:56:55.215Z,9.97
2023-01-19T08:01:58.674Z,8.13
2023-01-19T08:07:00.525Z,10.97
2023-01-19T08:12:02.888Z,11.50
2023-01-19T08:17:06.885Z,6.97
2023-01-19T08:22:09.842Z,7.43
2023-01-19T08:27:15.096Z,11.60
2023-01-19T08:32:18.335Z,7.03
2023-01-19T08:37:20.578Z,7.40
2023-01-19T08:42:22.603Z,10.17
2023-01-19T08:47:26.119Z,9.60
2023-01-19T08:52:27.887Z,8.70
2023-01-19T08:57:29.971Z,6.87
2023-01-19T09:02:33.237Z,11.27
2023-01-19T09:07:35.771Z,7.43
2023-01-19T09:12:38.321Z,10.83
2023-01-19T09:17:42.070Z,9.93
2023-01-19T09:22:44.616Z,7.13
2023-01-19T09:27:46.771Z,8.40
2023-01-19T09:32:50.096Z,6.53
2023-01-19T09:37:51.870Z,7.83
2023-01-19T09:42:57.169Z,7.77
2023-01-19T09:48:04.482Z,5.50
2023-01-19T09:53:16.712Z,5.50
2023-01-19T09:58:18.872Z,11.27
2023-01-19T10:03:24.222Z,7.03
2023-01-19T10:08:35.017Z,7.73
2023-01-19T10:13:44.115Z,7.33
2023-01-19T10:18:49.410Z,9.67
2023-01-19T10:23:56.115Z,5.43
2023-01-19T10:29:02.040Z,5.20
2023-01-19T10:34:05.236Z,5.90
2023-01-19T10:39:12.092Z,4.90
2023-01-19T10:44:24.141Z,5.40
2023-01-19T10:49:29.465Z,5.00
2023-01-19T10:54:34.064Z,6.07
2023-01-19T10:59:38.323Z,6.57
2023-01-19T11:04:41.733Z,4.57
2023-01-19T11:09:43.936Z,6.10
2023-01-19T11:14:46.984Z,5.67
2023-01-19T11:19:59.477Z,4.77
2023-01-19T11:25:04.798Z,6.83
2023-01-19T11:30:17.478Z,5.10
2023-01-19T11:35:35.145Z,6.57
2023-01-19T11:40:37.104Z,6.53
2023-01-19T11:45:40.150Z,5.63
2023-01-19T11:50:45.075Z,6.73
2023-01-19T11:55:52.688Z,3.87
2023-01-19T12:00:58.696Z,5.87
2023-01-19T12:06:09.219Z,8.53
2023-01-19T12:11:16.283Z,5.33
2023-01-19T12:16:21.039Z,7.30
2023-01-19T12:21:24.251Z,7.90
2023-01-19T12:26:31.047Z,9.57
2023-01-19T12:31:33.616Z,6.60
2023-01-19T12:36:38.307Z,7.27
2023-01-19T12:41:41.589Z,8.00
2023-01-19T12:46:45.484Z,6.10
2023-01-19T12:51:51.246Z,8.17
2023-01-19T12:56:59.793Z,5.73
2023-01-19T13:02:41.275Z,5.63
2023-01-19T13:08:22.522Z,4.97
2023-01-19T13:13:26.967Z,6.53
2023-01-19T13:18:31.617Z,6.33
2023-01-19T13:23:53.361Z,6.30
2023-01-19T13:28:58.766Z,10.33
2023-01-19T13:34:02.695Z,7.13
2023-01-19T13:39:12.558Z,7.87
2023-01-19T13:44:21.311Z,5.70
2023-01-19T13:49:29.625Z,8.10
2023-01-19T13:54:33.203Z,5.90
2023-01-19T13:59:35.677Z,7.53
2023-01-19T14:04:37.422Z,6.30
2023-01-19T14:09:41.016Z,9.00
2023-01-19T14:14:44.294Z,11.27
2023-01-19T14:19:50.451Z,9.77
2023-01-19T14:24:53.603Z,7.97
2023-01-19T14:30:19.227Z,9.23
2023-01-19T14:35:24.775Z,10.53
2023-01-19T14:40:29.235Z,8.33
2023-01-19T14:45:34.869Z,11.37
2023-01-19T14:50:39.802Z,9.97
2023-01-19T14:55:47.641Z,11.20
2023-01-19T15:00:50.935Z,12.00
2023-01-19T15:05:55.801Z,10.47
2023-01-19T15:11:03.727Z,10.07
2023-01-19T15:16:06.451Z,12.30
2023-01-19T15:21:11.925Z,8.60
2023-01-19T15:26:16.993Z,12.77
2023-01-19T15:31:21.349Z,10.27
2023-01-19T15:36:26.225Z,8.40
2023-01-19T15:41:29.515Z,12.97
2023-01-19T15:46:31.484Z,9.70
2023-01-19T15:51:33.229Z,11.33
2023-01-19T15:56:36.439Z,10.03
2023-01-19T16:01:39.928Z,12.60
2023-01-19T16:06:42.091Z,12.30
2023-01-19T16:11:46.087Z,11.60
2023-01-19T16:16:48.251Z,11.73
2023-01-19T16:21:50.311Z,10.73
2023-01-19T16:26:53.844Z,11.43
2023-01-19T16:31:55.888Z,10.37
2023-01-19T16:36:57.766Z,10.03
2023-01-19T16:42:00.891Z,14.37
2023-01-19T16:47:03.101Z,7.80
2023-01-19T16:52:04.951Z,9.60
2023-01-19T16:57:09.102Z,9.53
2023-01-19T17:02:11.410Z,9.23
2023-01-19T17:07:13.584Z,10.27
2023-01-19T17:12:17.142Z,10.00
2023-01-19T17:17:18.916Z,9.70
2023-01-19T17:22:28.929Z,7.77
2023-01-19T17:27:35.469Z,10.40
2023-01-19T17:32:38.150Z,9.37
2023-01-19T17:37:40.285Z,9.87
2023-01-19T17:42:43.382Z,7.60
2023-01-19T17:47:48.248Z,6.83
2023-01-19T17:52:50.328Z,8.00
2023-01-19T17:57:53.890Z,11.70
2023-01-19T18:02:55.824Z,9.43
2023-01-19T18:07:59.858Z,8.77
2023-01-19T18:13:03.037Z,13.37
2023-01-19T18:18:05.257Z,9.20
2023-01-19T18:23:07.651Z,8.50
2023-01-19T18:28:11.074Z,10.33
2023-01-19T18:33:13.019Z,10.73
2023-01-19T18:38:15.633Z,12.07
2023-01-19T18:43:19.224Z,9.30
2023-01-19T18:48:21.386Z,9.77
2023-01-19T18:53:23.885Z,9.20
2023-01-19T18:58:27.197Z,7.97
2023-01-19T19:03:30.053Z,7.43
2023-01-19T19:08:33.360Z,9.57
2023-01-19T19:13:36.484Z,9.17
2023-01-19T19:18:39.632Z,8.87
2023-01-19T19:23:41.357Z,8.47
2023-01-19T19:28:44.897Z,7.93
2023-01-19T19:33:48.613Z,8.90
2023-01-19T19:38:51.110Z,10.90
2023-01-19T19:43:55.609Z,8.07
2023-01-19T19:48:58.238Z,8.50
2023-01-19T19:54:01.685Z,7.87
2023-01-19T19:59:05.089Z,8.63
2023-01-19T20:04:08.923Z,7.23
2023-01-19T20:09:12.544Z,7.37
2023-01-19T20:14:16.613Z,8.77
2023-01-19T20:19:18.837Z,7.50
2023-01-19T20:24:21.308Z,8.70
2023-01-19T20:29:24.685Z,8.17
2023-01-19T20:34:32.830Z,8.13
2023-01-19T20:39:35.336Z,9.80
2023-01-19T20:44:38.617Z,9.90
2023-01-19T20:49:41.527Z,6.80
2023-01-19T20:54:43.591Z,6.50
2023-01-19T20:59:47.088Z,10.53
2023-01-19T21:04:49.294Z,6.87
2023-01-19T21:09:51.377Z,8.77
2023-01-19T21:14:54.825Z,7.53
2023-01-19T21:19:56.917Z,6.83
2023-01-19T21:24:59.217Z,7.57
2023-01-19T21:30:02.780Z,9.37
2023-01-19T21:35:06.183Z,8.60
2023-01-19T21:40:09.402Z,7.93
2023-01-19T21:45:13.928Z,8.53
2023-01-19T21:50:16.475Z,10.90
2023-01-19T21:55:18.614Z,8.87
2023-01-19T22:00:22.248Z,11.17
2023-01-19T22:05:24.368Z,7.93
2023-01-19T22:10:27.169Z,10.47
2023-01-19T22:15:30.890Z,11.10
2023-01-19T22:20:33.234Z,8.70
2023-01-19T22:25:35.041Z,9.77
2023-01-19T22:30:38.575Z,9.53
2023-01-19T22:35:40.597Z,9.63
2023-01-19T22:40:42.484Z,8.83
2023-01-19T22:45:46.279Z,10.70
2023-01-19T22:50:48.761Z,9.33
2023-01-19T22:55:50.792Z,9.63
2023-01-19T23:00:54.323Z,9.17
2023-01-19T23:05:56.117Z,9.63
2023-01-19T23:10:58.655Z,9.90
2023-01-19T23:16:02.515Z,6.77
2023-01-19T23:21:07.903Z,9.43
2023-01-19T23:26:12.350Z,11.20
2023-01-19T23:31:17.940Z,10.50
2023-01-19T23:36:21.070Z,14.20
2023-01-19T23:41:24.230Z,10.23
2023-01-19T23:46:27.907Z,10.13
2023-01-19T23:51:31.461Z,9.77
2023-01-19T23:56:35.025Z,9.27
